| time (UTC) | temp F | wind direction | speed knots | gust knots | rain 1hr in | rain 24hr in | rain mn in | humidity % | barometer mb |
| 20260505201043 | 64 | 319 | 7.0 | 13.9 | 0.00 | 0.00 | 0.00 | 53 | 1001.8 |
| 20260505200542 | 64 | 319 | 7.8 | 13.9 | 0.00 | 0.00 | 0.00 | 54 | 1001.8 |
| 20260505195543 | 66 | 319 | 7.0 | 18.2 | 0.00 | 0.00 | 0.00 | 51 | 1001.8 |
| 20260505195041 | 67 | 317 | 10.4 | 18.2 | 0.00 | 0.00 | 0.00 | 49 | 1001.5 |
| 20260505194556 | 66 | 318 | 12.2 | 16.5 | 0.00 | 0.00 | 0.00 | 51 | 1001.8 |
| 20260505194044 | 64 | 321 | 10.4 | 16.5 | 0.00 | 0.00 | 0.00 | 53 | 1001.9 |
| 20260505193545 | 64 | 321 | 10.4 | 16.5 | 0.00 | 0.00 | 0.00 | 55 | 1001.9 |
| 20260505193052 | 62 | 321 | 7.8 | 13.0 | 0.00 | 0.00 | 0.00 | 57 | 1001.9 |
| 20260505192541 | 62 | 321 | 5.2 | 13.0 | 0.00 | 0.00 | 0.00 | 56 | 1002.0 |
| 20260505192041 | 64 | 321 | 8.7 | 16.5 | 0.00 | 0.00 | 0.00 | 54 | 1001.9 |
| 20260505191551 | 65 | 321 | 10.4 | 16.5 | 0.00 | 0.00 | 0.00 | 52 | 1001.9 |
| 20260505191043 | 65 | 320 | 13.0 | 19.1 | 0.00 | 0.00 | 0.00 | 51 | 1002.2 |
| 20260505190542 | 66 | 319 | 13.0 | 19.1 | 0.00 | 0.00 | 0.00 | 51 | 1002.0 |
| 20260505190053 | 65 | 319 | 12.2 | 19.1 | 0.00 | 0.00 | 0.00 | 53 | 1002.2 |
| 20260505185543 | 63 | 321 | 7.0 | 13.9 | 0.00 | 0.00 | 0.00 | 56 | 1002.3 |
| 20260505185041 | 63 | 320 | 7.8 | 12.2 | 0.00 | 0.00 | 0.00 | 56 | 1002.2 |
| 20260505184551 | 63 | 320 | 6.1 | 17.4 | 0.00 | 0.00 | 0.00 | 56 | 1002.4 |
| 20260505184042 | 64 | 320 | 7.8 | 17.4 | 0.00 | 0.00 | 0.00 | 55 | 1002.4 |
| 20260505183541 | 63 | 319 | 8.7 | 12.2 | 0.00 | 0.00 | 0.00 | 57 | 1002.4 |
| 20260505183104 | 62 | 320 | 6.1 | 11.3 | 0.00 | 0.00 | 0.00 | 59 | 1002.6 |
| 20260505182541 | 63 | 320 | 7.0 | 15.6 | 0.00 | 0.00 | 0.00 | 57 | 1002.6 |
| 20260505182041 | 64 | 320 | 10.4 | 15.6 | 0.00 | 0.00 | 0.00 | 55 | 1002.7 |
| 20260505181553 | 63 | 316 | 9.6 | 14.8 | 0.00 | 0.00 | 0.00 | 57 | 1002.5 |
| 20260505181046 | 64 | 320 | 7.8 | 14.8 | 0.00 | 0.00 | 0.00 | 57 | 1002.7 |
| 20260505180541 | 64 | 319 | 10.4 | 16.5 | 0.00 | 0.00 | 0.00 | 56 | 1002.6 |
| 20260505180059 | 63 | 319 | 9.6 | 16.5 | 0.00 | 0.00 | 0.00 | 58 | 1002.7 |
| 20260505175541 | 63 | 321 | 5.2 | 12.2 | 0.00 | 0.00 | 0.00 | 59 | 1002.7 |
| 20260505175043 | 63 | 321 | 7.8 | 12.2 | 0.00 | 0.00 | 0.00 | 61 | 1002.8 |
| 20260505174558 | 62 | 321 | 7.8 | 12.2 | 0.00 | 0.00 | 0.00 | 61 | 1002.9 |
| 20260505174042 | 62 | 321 | 7.8 | 16.5 | 0.00 | 0.00 | 0.00 | 61 | 1003.1 |
| 20260505173541 | 63 | 320 | 7.0 | 16.5 | 0.00 | 0.00 | 0.00 | 60 | 1003.4 |
| 20260505173050 | 64 | 320 | 12.2 | 16.5 | 0.00 | 0.00 | 0.00 | 58 | 1003.3 |
| 20260505172544 | 64 | 321 | 9.6 | 15.6 | 0.00 | 0.00 | 0.00 | 59 | 1003.4 |
| 20260505172046 | 63 | 320 | 8.7 | 12.2 | 0.00 | 0.00 | 0.00 | 60 | 1003.5 |
| 20260505171551 | 62 | 320 | 7.0 | 15.6 | 0.00 | 0.00 | 0.00 | 61 | 1003.5 |
| 20260505171043 | 63 | 320 | 7.0 | 15.6 | 0.00 | 0.00 | 0.00 | 58 | 1003.9 |
| 20260505170544 | 63 | 320 | 10.4 | 21.7 | 0.00 | 0.00 | 0.00 | 59 | 1004.0 |
| 20260505170050 | 64 | 319 | 12.2 | 21.7 | 0.00 | 0.00 | 0.00 | 58 | 1004.1 |
| 20260505165544 | 63 | 318 | 9.6 | 16.5 | 0.00 | 0.00 | 0.00 | 60 | 1004.0 |
| 20260505165043 | 62 | 319 | 4.3 | 13.0 | 0.00 | 0.00 | 0.00 | 62 | 1004.1 |
| 20260505164600 | 63 | 319 | 9.6 | 13.9 | 0.00 | 0.00 | 0.00 | 62 | 1004.3 |
| 20260505164043 | 62 | 319 | 6.1 | 13.9 | 0.00 | 0.00 | 0.00 | 64 | 1004.2 |
| 20260505163545 | 60 | 327 | 4.3 | 9.6 | 0.00 | 0.00 | 0.00 | 66 | 1004.5 |
| 20260505163050 | 60 | 327 | 6.1 | 15.6 | 0.00 | 0.00 | 0.00 | 65 | 1004.7 |
| 20260505162543 | 60 | 327 | 7.0 | 15.6 | 0.00 | 0.00 | 0.00 | 65 | 1004.7 |
| 20260505162043 | 59 | 327 | 5.2 | 14.8 | 0.00 | 0.00 | 0.00 | 70 | 1004.7 |
| 20260505161602 | 58 | 327 | 7.0 | 9.6 | 0.00 | 0.00 | 0.00 | 69 | 1004.8 |
| 20260505161043 | 57 | 326 | 3.5 | 6.1 | 0.00 | 0.00 | 0.00 | 70 | 1004.9 |
| 20260505160543 | 58 | 327 | 4.3 | 9.6 | 0.00 | 0.00 | 0.00 | 69 | 1005.0 |
| 20260505153100 | 60 | 322 | 7.8 | 13.0 | 0.00 | 0.00 | 0.00 | 65 | 1005.0 |
| 20260505152544 | 59 | 321 | 7.0 | 9.6 | 0.00 | 0.00 | 0.00 | 68 | 1005.0 |
| 20260505152045 | 58 | 323 | 3.5 | 7.8 | 0.00 | 0.00 | 0.00 | 69 | 1005.3 |
| 20260505151553 | 58 | 323 | 4.3 | 12.2 | 0.00 | 0.00 | 0.00 | 69 | 1005.3 |
| 20260505151044 | 58 | 323 | 8.7 | 12.2 | 0.00 | 0.00 | 0.00 | 69 | 1005.4 |
| 20260505150542 | 56 | 322 | 2.6 | 7.8 | 0.00 | 0.00 | 0.00 | 72 | 1005.4 |
| 20260505140545 | 57 | 321 | 0.0 | 1.7 | 0.00 | 0.00 | 0.00 | 70 | 1005.8 |
| 20260505140110 | 57 | 0 | 0.0 | 1.7 | 0.00 | 0.00 | 0.00 | 70 | 1005.7 |
| 20260505124550 | 43 | 0 | 0.0 | 0.0 | 0.00 | 0.00 | 0.00 | 91 | 1005.9 |
| 20260505124043 | 43 | 321 | 0.0 | 0.0 | 0.00 | 0.00 | 0.00 | 92 | 1005.8 |
| 20260505123544 | 43 | 0 | 0.0 | 0.0 | 0.00 | 0.00 | 0.00 | 93 | 1005.8 |
| 20260505123055 | 42 | 0 | 0.0 | 0.0 | 0.00 | 0.00 | 0.00 | 93 | 1005.9 |
| 20260505122544 | 42 | 0 | 0.0 | 0.0 | 0.00 | 0.00 | 0.00 | 93 | 1006.1 |
| 20260505122045 | 42 | 0 | 0.0 | 0.0 | 0.00 | 0.00 | 0.00 | 95 | 1005.9 |
| 20260505121552 | 42 | 0 | 0.0 | 0.0 | 0.00 | 0.00 | 0.00 | 96 | 1006.2 |
| 20260505121045 | 41 | 0 | 0.0 | 0.0 | 0.00 | 0.00 | 0.00 | 96 | 1006.1 |
| 20260505120544 | 41 | 0 | 0.0 | 0.0 | 0.00 | 0.00 | 0.00 | 96 | 1006.2 |
| 20260505120055 | 40 | 0 | 0.0 | 0.0 | 0.00 | 0.00 | 0.00 | 96 | 1006.1 |
| 20260505115544 | 40 | 0 | 0.0 | 0.0 | 0.00 | 0.00 | 0.00 | 96 | 1006.5 |
| 20260505115046 | 40 | 0 | 0.0 | 0.0 | 0.00 | 0.00 | 0.00 | 96 | 1006.5 |
| 20260505114558 | 39 | 0 | 0.0 | 0.9 | 0.00 | 0.00 | 0.00 | 96 | 1006.6 |
| 20260505114044 | 39 | 0 | 0.0 | 0.9 | 0.00 | 0.00 | 0.00 | 96 | 1006.6 |
| 20260505113547 | 39 | 0 | 0.0 | 0.9 | 0.00 | 0.00 | 0.00 | 97 | 1006.8 |
| 20260505113107 | 39 | 321 | 0.0 | 0.9 | 0.00 | 0.00 | 0.00 | 97 | 1006.7 |
| 20260505112544 | 38 | 0 | 0.0 | 0.0 | 0.00 | 0.00 | 0.00 | 97 | 1006.6 |
| 20260505112044 | 37 | 0 | 0.0 | 0.0 | 0.00 | 0.00 | 0.00 | 97 | 1006.6 |
| 20260505111553 | 37 | 0 | 0.0 | 0.0 | 0.00 | 0.00 | 0.00 | 97 | 1006.7 |
| 20260505111045 | 37 | 0 | 0.0 | 0.0 | 0.00 | 0.00 | 0.00 | 97 | 1006.6 |
| 20260505110542 | 36 | 0 | 0.0 | 0.0 | 0.00 | 0.00 | 0.00 | 97 | 1006.4 |
| 20260505102044 | 33 | 0 | 0.0 | 0.0 | 0.00 | 0.00 | 0.00 | 96 | 1006.6 |
| 20260505101552 | 33 | 0 | 0.0 | 0.0 | 0.00 | 0.00 | 0.00 | 95 | 1006.6 |
| 20260505101044 | 33 | 0 | 0.0 | 0.0 | 0.00 | 0.00 | 0.00 | 95 | 1006.4 |
| 20260505100544 | 33 | 0 | 0.0 | 0.0 | 0.00 | 0.00 | 0.00 | 95 | 1006.5 |
| 20260505100053 | 33 | 0 | 0.0 | 0.0 | 0.00 | 0.00 | 0.00 | 95 | 1006.5 |
| 20260505095544 | 33 | 0 | 0.0 | 0.0 | 0.00 | 0.00 | 0.00 | 95 | 1006.5 |
| 20260505095046 | 33 | 0 | 0.0 | 0.0 | 0.00 | 0.00 | 0.00 | 95 | 1006.5 |
| 20260505094552 | 33 | 0 | 0.0 | 0.0 | 0.00 | 0.00 | 0.00 | 95 | 1006.6 |
| 20260505094044 | 32 | 0 | 0.0 | 0.0 | 0.00 | 0.00 | 0.00 | 95 | 1006.5 |
| 20260505093541 | 32 | 0 | 0.0 | 0.0 | 0.00 | 0.00 | 0.00 | 95 | 1006.5 |
| 20260505093057 | 32 | 0 | 0.0 | 0.0 | 0.00 | 0.00 | 0.00 | 95 | 1006.5 |
| 20260505092542 | 32 | 0 | 0.0 | 0.0 | 0.00 | 0.00 | 0.00 | 95 | 1006.6 |
| 20260505092044 | 32 | 0 | 0.0 | 0.0 | 0.00 | 0.00 | 0.00 | 95 | 1006.6 |
| 20260505091602 | 32 | 0 | 0.0 | 0.0 | 0.00 | 0.00 | 0.00 | 95 | 1006.7 |
| 20260505091048 | 32 | 0 | 0.0 | 0.0 | 0.00 | 0.00 | 0.00 | 95 | 1006.8 |
| 20260505090545 | 32 | 0 | 0.0 | 0.0 | 0.00 | 0.00 | 0.00 | 95 | 1006.8 |
| 20260505090052 | 32 | 0 | 0.0 | 0.0 | 0.00 | 0.00 | 0.00 | 95 | 1006.7 |
| 20260505085544 | 32 | 0 | 0.0 | 0.0 | 0.00 | 0.00 | 0.00 | 95 | 1006.7 |
| 20260505085044 | 32 | 0 | 0.0 | 0.0 | 0.00 | 0.00 | 0.00 | 95 | 1006.7 |
| 20260505084555 | 32 | 0 | 0.0 | 0.0 | 0.00 | 0.00 | 0.00 | 95 | 1006.8 |
| 20260505084043 | 32 | 0 | 0.0 | 0.0 | 0.00 | 0.00 | 0.00 | 95 | 1006.8 |
| 20260505083543 | 32 | 0 | 0.0 | 0.0 | 0.00 | 0.00 | 0.00 | 95 | 1006.7 |
| 20260505083100 | 32 | 0 | 0.0 | 0.0 | 0.00 | 0.00 | 0.00 | 95 | 1006.8 |
| 20260505082543 | 32 | 0 | 0.0 | 0.0 | 0.00 | 0.00 | 0.00 | 95 | 1006.8 |
| 20260505082042 | 32 | 0 | 0.0 | 0.0 | 0.00 | 0.00 | 0.00 | 95 | 1006.8 |
| 20260505081555 | 32 | 0 | 0.0 | 0.0 | 0.00 | 0.00 | 0.00 | 95 | 1006.9 |
| 20260505081044 | 32 | 0 | 0.0 | 0.0 | 0.00 | 0.00 | 0.00 | 95 | 1006.9 |
| 20260505080545 | 32 | 0 | 0.0 | 0.0 | 0.00 | 0.00 | 0.00 | 95 | 1007.1 |
| 20260505080053 | 32 | 0 | 0.0 | 0.0 | 0.00 | 0.00 | 0.00 | 95 | 1007.0 |
| 20260505075544 | 33 | 0 | 0.0 | 0.0 | 0.00 | 0.00 | 0.00 | 95 | 1007.1 |
| 20260505075044 | 33 | 0 | 0.0 | 0.0 | 0.00 | 0.00 | 0.00 | 95 | 1007.1 |
| 20260505074553 | 33 | 0 | 0.0 | 0.0 | 0.00 | 0.00 | 0.00 | 95 | 1007.0 |
| 20260505074044 | 33 | 0 | 0.0 | 0.0 | 0.00 | 0.00 | 0.00 | 95 | 1007.1 |
| 20260505073544 | 33 | 0 | 0.0 | 0.0 | 0.00 | 0.00 | 0.00 | 95 | 1007.1 |
| 20260505073057 | 33 | 0 | 0.0 | 0.0 | 0.00 | 0.00 | 0.00 | 95 | 1007.0 |
| 20260505072548 | 33 | 0 | 0.0 | 0.0 | 0.00 | 0.00 | 0.00 | 94 | 1007.0 |
| 20260505072046 | 33 | 0 | 0.0 | 0.0 | 0.00 | 0.00 | 0.00 | 94 | 1007.1 |
| 20260505071558 | 33 | 0 | 0.0 | 0.0 | 0.00 | 0.00 | 0.00 | 94 | 1007.1 |
| 20260505071045 | 33 | 0 | 0.0 | 0.0 | 0.00 | 0.00 | 0.00 | 95 | 1007.0 |
| 20260505070547 | 33 | 0 | 0.0 | 0.0 | 0.00 | 0.00 | 0.00 | 95 | 1007.0 |
| 20260505070100 | 33 | 0 | 0.0 | 0.0 | 0.00 | 0.00 | 0.00 | 94 | 1007.0 |
| 20260505065547 | 33 | 0 | 0.0 | 0.0 | 0.00 | 0.00 | 0.00 | 94 | 1007.0 |
| 20260505065045 | 33 | 0 | 0.0 | 0.0 | 0.00 | 0.00 | 0.00 | 95 | 1007.0 |
| 20260505064553 | 33 | 0 | 0.0 | 0.0 | 0.00 | 0.00 | 0.00 | 94 | 1007.1 |
| 20260505064047 | 33 | 0 | 0.0 | 0.0 | 0.00 | 0.00 | 0.00 | 94 | 1007.1 |
| 20260505063544 | 33 | 0 | 0.0 | 0.0 | 0.00 | 0.00 | 0.00 | 94 | 1007.1 |
| 20260505063053 | 33 | 0 | 0.0 | 0.0 | 0.00 | 0.00 | 0.00 | 94 | 1007.0 |
| 20260505062544 | 34 | 321 | 0.0 | 0.0 | 0.00 | 0.00 | 0.00 | 94 | 1007.1 |
| 20260505062047 | 34 | 0 | 0.0 | 0.0 | 0.00 | 0.00 | 0.00 | 94 | 1007.0 |
| 20260505061549 | 34 | 0 | 0.0 | 0.0 | 0.00 | 0.00 | 0.00 | 94 | 1007.0 |
| 20260505061044 | 34 | 0 | 0.0 | 0.0 | 0.00 | 0.00 | 0.00 | 94 | 1007.0 |
| 20260505060544 | 34 | 0 | 0.0 | 0.0 | 0.00 | 0.00 | 0.00 | 94 | 1007.0 |
| 20260505060052 | 34 | 0 | 0.0 | 0.0 | 0.00 | 0.00 | 0.00 | 94 | 1006.9 |
| 20260505055546 | 34 | 0 | 0.0 | 0.0 | 0.00 | 0.00 | 0.00 | 94 | 1007.0 |
| 20260505055044 | 34 | 0 | 0.0 | 0.0 | 0.00 | 0.00 | 0.00 | 94 | 1007.0 |
| 20260505054548 | 35 | 0 | 0.0 | 0.0 | 0.00 | 0.00 | 0.00 | 94 | 1006.9 |
| 20260505054043 | 35 | 0 | 0.0 | 0.0 | 0.00 | 0.00 | 0.00 | 94 | 1007.0 |
| 20260505053544 | 35 | 0 | 0.0 | 0.0 | 0.00 | 0.00 | 0.00 | 94 | 1007.0 |
| 20260505053055 | 35 | 0 | 0.0 | 0.0 | 0.00 | 0.00 | 0.00 | 94 | 1007.0 |
| 20260505052543 | 35 | 0 | 0.0 | 0.0 | 0.00 | 0.00 | 0.00 | 94 | 1007.0 |
| 20260505052044 | 35 | 0 | 0.0 | 0.0 | 0.00 | 0.00 | 0.00 | 94 | 1007.0 |
| 20260505051602 | 35 | 0 | 0.0 | 0.0 | 0.00 | 0.00 | 0.00 | 94 | 1006.9 |
| 20260505051045 | 35 | 0 | 0.0 | 0.0 | 0.00 | 0.00 | 0.00 | 94 | 1007.0 |
| 20260505050546 | 35 | 0 | 0.0 | 0.0 | 0.00 | 0.00 | 0.00 | 94 | 1006.9 |
| 20260505050104 | 36 | 0 | 0.0 | 0.0 | 0.00 | 0.00 | 0.00 | 94 | 1006.9 |
| 20260505041557 | 37 | 0 | 0.0 | 0.0 | 0.00 | 0.00 | 0.00 | 93 | 1006.7 |
| 20260505041043 | 37 | 0 | 0.0 | 0.0 | 0.00 | 0.00 | 0.00 | 93 | 1006.7 |
| 20260505040544 | 37 | 0 | 0.0 | 0.0 | 0.00 | 0.00 | 0.00 | 93 | 1006.7 |
| 20260505040052 | 37 | 0 | 0.0 | 0.0 | 0.00 | 0.00 | 0.00 | 93 | 1006.7 |
| 20260505035541 | 37 | 0 | 0.0 | 0.0 | 0.00 | 0.00 | 0.00 | 93 | 1006.6 |
| 20260505035047 | 37 | 0 | 0.0 | 0.0 | 0.00 | 0.00 | 0.00 | 93 | 1006.6 |
| 20260505034553 | 38 | 0 | 0.0 | 0.0 | 0.00 | 0.00 | 0.00 | 93 | 1006.6 |
| 20260505034044 | 38 | 0 | 0.0 | 0.0 | 0.00 | 0.00 | 0.00 | 93 | 1006.6 |
| 20260505033544 | 38 | 0 | 0.0 | 0.0 | 0.00 | 0.00 | 0.00 | 93 | 1006.6 |
| 20260505033050 | 38 | 0 | 0.0 | 0.0 | 0.00 | 0.00 | 0.00 | 92 | 1006.5 |
| 20260505032544 | 38 | 0 | 0.0 | 0.0 | 0.00 | 0.00 | 0.00 | 92 | 1006.5 |
| 20260505032048 | 39 | 0 | 0.0 | 0.0 | 0.00 | 0.00 | 0.00 | 92 | 1006.6 |
| 20260505031556 | 39 | 0 | 0.0 | 0.0 | 0.00 | 0.00 | 0.00 | 92 | 1006.7 |
| 20260505031044 | 39 | 0 | 0.0 | 0.0 | 0.00 | 0.00 | 0.00 | 92 | 1006.7 |
| 20260505030547 | 39 | 0 | 0.0 | 0.0 | 0.00 | 0.00 | 0.00 | 92 | 1006.7 |
| 20260505030051 | 40 | 0 | 0.0 | 0.0 | 0.00 | 0.00 | 0.00 | 92 | 1006.7 |
| 20260505025544 | 40 | 0 | 0.0 | 0.0 | 0.00 | 0.00 | 0.00 | 92 | 1006.6 |
| 20260505025043 | 40 | 0 | 0.0 | 0.0 | 0.00 | 0.00 | 0.00 | 92 | 1006.7 |
| 20260505024601 | 40 | 0 | 0.0 | 0.0 | 0.00 | 0.00 | 0.00 | 92 | 1006.8 |
| 20260505024041 | 40 | 0 | 0.0 | 0.0 | 0.00 | 0.00 | 0.00 | 92 | 1006.8 |
| 20260505023543 | 40 | 0 | 0.0 | 0.0 | 0.00 | 0.00 | 0.00 | 92 | 1006.7 |
| 20260505023054 | 41 | 0 | 0.0 | 0.0 | 0.00 | 0.00 | 0.00 | 92 | 1006.8 |
| 20260505022544 | 41 | 0 | 0.0 | 0.0 | 0.00 | 0.00 | 0.00 | 92 | 1006.7 |
| 20260505022044 | 41 | 0 | 0.0 | 0.0 | 0.00 | 0.00 | 0.00 | 92 | 1006.7 |
| 20260505021549 | 41 | 0 | 0.0 | 0.0 | 0.00 | 0.00 | 0.00 | 92 | 1006.7 |
| 20260505021044 | 41 | 0 | 0.0 | 0.0 | 0.00 | 0.00 | 0.00 | 92 | 1006.8 |
| 20260505020544 | 41 | 0 | 0.0 | 0.0 | 0.00 | 0.00 | 0.00 | 92 | 1006.9 |
| 20260505020051 | 41 | 0 | 0.0 | 0.0 | 0.00 | 0.00 | 0.00 | 92 | 1006.8 |
| 20260505015544 | 42 | 0 | 0.0 | 0.0 | 0.00 | 0.00 | 0.00 | 91 | 1006.9 |
| 20260505015045 | 42 | 0 | 0.0 | 0.0 | 0.00 | 0.00 | 0.00 | 91 | 1006.9 |
| 20260505014549 | 42 | 0 | 0.0 | 0.0 | 0.00 | 0.00 | 0.00 | 91 | 1006.9 |
| 20260505014046 | 42 | 0 | 0.0 | 0.0 | 0.00 | 0.00 | 0.00 | 91 | 1006.9 |
| 20260505013541 | 42 | 0 | 0.0 | 0.0 | 0.00 | 0.00 | 0.00 | 91 | 1007.0 |
| 20260505013107 | 42 | 0 | 0.0 | 0.0 | 0.00 | 0.00 | 0.00 | 91 | 1006.9 |
| 20260505012546 | 42 | 0 | 0.0 | 0.0 | 0.00 | 0.00 | 0.00 | 91 | 1006.8 |
| 20260505012044 | 42 | 0 | 0.0 | 0.0 | 0.00 | 0.00 | 0.00 | 91 | 1006.8 |
| 20260505011551 | 42 | 0 | 0.0 | 0.0 | 0.00 | 0.00 | 0.00 | 91 | 1006.7 |
| 20260505011044 | 43 | 0 | 0.0 | 0.0 | 0.00 | 0.00 | 0.00 | 91 | 1006.7 |
| 20260505010544 | 43 | 0 | 0.0 | 0.0 | 0.00 | 0.00 | 0.00 | 91 | 1006.5 |
| 20260505010100 | 43 | 0 | 0.0 | 0.0 | 0.00 | 0.00 | 0.00 | 90 | 1006.4 |
| 20260505005544 | 43 | 0 | 0.0 | 0.0 | 0.00 | 0.00 | 0.00 | 90 | 1006.4 |
| 20260505005044 | 43 | 0 | 0.0 | 0.0 | 0.00 | 0.00 | 0.00 | 90 | 1006.4 |
| 20260505004549 | 44 | 0 | 0.0 | 0.0 | 0.00 | 0.00 | 0.00 | 90 | 1006.4 |
| 20260505004043 | 44 | 0 | 0.0 | 0.0 | 0.00 | 0.00 | 0.00 | 89 | 1006.2 |
| 20260505003546 | 44 | 0 | 0.0 | 0.0 | 0.00 | 0.00 | 0.00 | 89 | 1006.1 |
| 20260505003056 | 45 | 0 | 0.0 | 0.0 | 0.00 | 0.00 | 0.00 | 89 | 1006.1 |
| 20260505002543 | 45 | 0 | 0.0 | 0.0 | 0.00 | 0.00 | 0.00 | 89 | 1006.0 |
| 20260505002043 | 45 | 0 | 0.0 | 0.0 | 0.00 | 0.00 | 0.00 | 88 | 1005.9 |
| 20260505001552 | 46 | 0 | 0.0 | 0.0 | 0.00 | 0.00 | 0.00 | 88 | 1005.9 |
| 20260505001044 | 46 | 0 | 0.0 | 0.0 | 0.00 | 0.00 | 0.00 | 87 | 1005.8 |
| 20260505000546 | 46 | 0 | 0.0 | 0.0 | 0.00 | 0.00 | 0.00 | 86 | 1005.9 |
| 20260505000058 | 47 | 0 | 0.0 | 0.0 | 0.00 | 0.00 | 0.00 | 86 | 1005.6 |
| 20260504235545 | 47 | 0 | 0.0 | 0.0 | 0.00 | 0.00 | 0.00 | 85 | 1005.6 |
| 20260504235045 | 48 | 0 | 0.0 | 0.0 | 0.00 | 0.00 | 0.00 | 84 | 1005.8 |
| 20260504234548 | 48 | 0 | 0.0 | 0.0 | 0.00 | 0.00 | 0.00 | 83 | 1005.5 |
| 20260504234045 | 49 | 0 | 0.0 | 0.0 | 0.00 | 0.00 | 0.00 | 81 | 1005.4 |
| 20260504233544 | 50 | 0 | 0.0 | 0.0 | 0.00 | 0.00 | 0.00 | 80 | 1005.3 |
| 20260504233100 | 50 | 0 | 0.0 | 0.0 | 0.00 | 0.00 | 0.00 | 79 | 1005.2 |
| 20260504232549 | 51 | 0 | 0.0 | 0.0 | 0.00 | 0.00 | 0.00 | 79 | 1005.3 |
| 20260504232046 | 51 | 0 | 0.0 | 0.0 | 0.00 | 0.00 | 0.00 | 77 | 1005.2 |
| 20260504231548 | 52 | 0 | 0.0 | 0.0 | 0.00 | 0.00 | 0.00 | 76 | 1005.2 |
| 20260504231043 | 52 | 0 | 0.0 | 0.0 | 0.00 | 0.00 | 0.00 | 75 | 1005.1 |
| 20260504230546 | 53 | 0 | 0.0 | 0.9 | 0.00 | 0.00 | 0.00 | 74 | 1005.1 |
| 20260504230056 | 53 | 321 | 0.0 | 0.9 | 0.00 | 0.00 | 0.00 | 70 | 1005.1 |
| 20260504225543 | 53 | 321 | 0.0 | 0.9 | 0.00 | 0.00 | 0.00 | 70 | 1005.1 |
| 20260504225046 | 53 | 0 | 0.0 | 0.9 | 0.00 | 0.00 | 0.00 | 71 | 1004.9 |
| 20260504224548 | 53 | 321 | 0.0 | 2.6 | 0.00 | 0.00 | 0.00 | 70 | 1004.8 |
| 20260504224043 | 52 | 0 | 0.0 | 3.5 | 0.00 | 0.00 | 0.00 | 72 | 1004.9 |
| 20260504223543 | 52 | 321 | 2.6 | 3.5 | 0.00 | 0.00 | 0.00 | 71 | 1004.8 |
| 20260504223059 | 52 | 321 | 1.7 | 2.6 | 0.00 | 0.00 | 0.00 | 71 | 1004.9 |
| 20260504222544 | 53 | 321 | 0.0 | 1.7 | 0.00 | 0.00 | 0.00 | 71 | 1004.7 |
| 20260504222043 | 54 | 321 | 0.9 | 1.7 | 0.00 | 0.00 | 0.00 | 69 | 1004.9 |
| 20260504221545 | 54 | 321 | 0.9 | 2.6 | 0.00 | 0.00 | 0.00 | 69 | 1004.9 |
| 20260504221044 | 54 | 321 | 1.7 | 2.6 | 0.00 | 0.00 | 0.00 | 69 | 1005.0 |
| 20260504220544 | 54 | 321 | 0.0 | 1.7 | 0.00 | 0.00 | 0.00 | 69 | 1005.1 |
| 20260504220053 | 53 | 0 | 0.0 | 2.6 | 0.00 | 0.00 | 0.00 | 71 | 1004.9 |
| 20260504215544 | 53 | 321 | 0.9 | 4.3 | 0.00 | 0.00 | 0.00 | 71 | 1005.1 |
| 20260504215046 | 53 | 321 | 1.7 | 4.3 | 0.00 | 0.00 | 0.00 | 71 | 1004.9 |
| 20260504214601 | 52 | 321 | 2.6 | 4.3 | 0.00 | 0.00 | 0.00 | 72 | 1005.1 |
| 20260504214043 | 52 | 321 | 2.6 | 4.3 | 0.00 | 0.00 | 0.00 | 72 | 1005.1 |
| 20260504213543 | 51 | 321 | 1.7 | 3.5 | 0.00 | 0.00 | 0.00 | 73 | 1005.1 |
| 20260504213057 | 51 | 321 | 0.9 | 3.5 | 0.00 | 0.00 | 0.00 | 74 | 1005.1 |
| 20260504212543 | 51 | 321 | 0.9 | 5.2 | 0.00 | 0.00 | 0.00 | 73 | 1005.1 |
| 20260504212044 | 51 | 321 | 2.6 | 5.2 | 0.00 | 0.00 | 0.00 | 74 | 1005.0 |
| 20260504211553 | 51 | 321 | 3.5 | 5.2 | 0.00 | 0.00 | 0.00 | 73 | 1005.1 |
| 20260504211048 | 51 | 321 | 3.5 | 7.8 | 0.00 | 0.00 | 0.00 | 73 | 1005.1 |
| 20260504210546 | 51 | 321 | 5.2 | 7.8 | 0.00 | 0.00 | 0.00 | 72 | 1005.1 |
| 20260504210049 | 51 | 321 | 4.3 | 9.6 | 0.00 | 0.00 | 0.00 | 73 | 1005.0 |
| 20260504205544 | 51 | 321 | 4.3 | 9.6 | 0.00 | 0.00 | 0.00 | 72 | 1005.0 |
| 20260504205043 | 51 | 321 | 5.2 | 10.4 | 0.00 | 0.00 | 0.00 | 71 | 1004.9 |
| 20260504204551 | 51 | 321 | 6.1 | 10.4 | 0.00 | 0.00 | 0.00 | 72 | 1004.9 |
| 20260504204043 | 51 | 321 | 6.1 | 10.4 | 0.00 | 0.00 | 0.00 | 73 | 1004.8 |
| 20260504203546 | 50 | 321 | 4.3 | 8.7 | 0.00 | 0.00 | 0.00 | 73 | 1004.9 |
| 20260504203056 | 50 | 321 | 4.3 | 8.7 | 0.00 | 0.00 | 0.00 | 75 | 1004.8 |
| 20260504202543 | 49 | 321 | 3.5 | 7.8 | 0.00 | 0.00 | 0.00 | 76 | 1004.8 |
| 20260504202044 | 49 | 321 | 3.5 | 5.2 | 0.00 | 0.00 | 0.00 | 77 | 1005.0 |
| 20260504201601 | 49 | 321 | 2.6 | 3.5 | 0.00 | 0.00 | 0.00 | 78 | 1004.9 |